Time;durP1;ratioP1;P1;durP2;ratioP2;P2;SDS_P1;SDS_P2;PMS_P1;PMS_P2;Temp;Humidity;BMP_temperature;BMP_pressure;BME280_temperature;BME280_humidity;BME280_pressure;Samples;Min_cycle;Max_cycle;Signal;HPM_P1;HPM_P2
2022/01/09 00:00:25;;;;;;;56.83;32.97;;;;;;;4.83;71.61;99671.31;5092403;28;20035;-70
2022/01/09 00:02:52;;;;;;;56.92;34.92;;;;;;;4.79;72.03;99664.03;5092502;28;20028;-70
2022/01/09 00:05:18;;;;;;;67.88;40.63;;;;;;;4.73;73.31;99655.97;5092453;28;20062;-70
2022/01/09 00:07:47;;;;;;;63.75;39.10;;;;;;;4.77;72.17;99658.06;5092478;28;20477;-70
2022/01/09 00:10:13;;;;;;;55.30;36.65;;;;;;;4.61;73.11;99653.16;5092601;28;20040;-70
2022/01/09 00:12:42;;;;;;;64.60;41.53;;;;;;;4.65;74.17;99659.63;5092186;28;20052;-70
2022/01/09 00:15:11;;;;;;;59.63;37.53;;;;;;;4.68;74.03;99661.69;5092386;28;20335;-70
2022/01/09 00:17:37;;;;;;;44.38;28.40;;;;;;;4.67;74.06;99665.59;5092295;28;20494;-70
2022/01/09 00:20:05;;;;;;;39.72;25.58;;;;;;;4.63;73.70;99650.88;5092200;28;20028;-70
2022/01/09 00:24:59;;;;;;;23.10;15.20;;;;;;;4.73;73.20;99655.19;5093509;28;20055;-70
2022/01/09 00:27:25;;;;;;;22.73;13.93;;;;;;;4.75;73.18;99658.41;5092104;28;20478;-70
2022/01/09 00:29:50;;;;;;;20.40;12.63;;;;;;;4.88;73.30;99673.06;5092137;28;20032;-72
2022/01/09 00:32:16;;;;;;;17.60;11.95;;;;;;;4.83;72.68;99659.47;5092103;28;20060;-70
2022/01/09 00:34:41;;;;;;;21.98;13.63;;;;;;;4.91;71.98;99666.88;5092028;28;20085;-70
2022/01/09 00:37:10;;;;;;;16.55;11.82;;;;;;;4.80;71.56;99666.50;5095824;28;20027;-70
2022/01/09 00:39:38;;;;;;;20.88;12.27;;;;;;;4.91;71.35;99677.91;5096306;28;20430;-70
2022/01/09 00:42:06;;;;;;;21.17;13.13;;;;;;;4.87;71.58;99671.44;5095913;28;20032;-70
2022/01/09 00:44:32;;;;;;;28.20;14.52;;;;;;;4.89;72.67;99666.41;5096440;28;20028;-70
2022/01/09 00:47:00;;;;;;;25.83;15.82;;;;;;;4.85;72.94;99659.97;5095765;28;20421;-70
2022/01/09 00:49:27;;;;;;;27.52;16.48;;;;;;;4.94;72.62;99667.00;5095805;28;20151;-70
2022/01/09 00:51:53;;;;;;;22.77;14.85;;;;;;;4.99;71.99;99655.75;5112950;28;20442;-70
2022/01/09 00:54:22;;;;;;;18.33;11.18;;;;;;;4.96;70.88;99663.91;5096766;28;20512;-70
2022/01/09 00:56:51;;;;;;;22.52;12.77;;;;;;;4.94;71.12;99669.75;5095947;28;20470;-70
2022/01/09 00:59:16;;;;;;;16.77;10.02;;;;;;;4.90;71.34;99668.84;5096737;28;20032;-70
2022/01/09 01:01:42;;;;;;;20.50;10.85;;;;;;;4.80;72.02;99668.44;5097109;28;20039;-70
2022/01/09 01:04:07;;;;;;;15.60;9.18;;;;;;;4.82;72.51;99666.94;5095908;28;20069;-70
2022/01/09 01:06:33;;;;;;;17.13;9.82;;;;;;;4.69;72.10;99660.56;5095475;28;20032;-70
2022/01/09 01:08:59;;;;;;;21.67;12.98;;;;;;;4.65;72.32;99650.56;5095374;28;20036;-70
2022/01/09 01:11:24;;;;;;;28.67;15.95;;;;;;;4.68;72.66;99650.66;5095385;28;20059;-70
2022/01/09 01:13:50;;;;;;;25.42;17.50;;;;;;;4.62;72.53;99643.75;5096442;28;20044;-70
2022/01/09 01:16:15;;;;;;;29.63;17.83;;;;;;;4.68;71.86;99653.44;5095175;28;20032;-70
2022/01/09 01:18:44;;;;;;;22.48;16.83;;;;;;;4.82;72.07;99657.88;5095787;28;20143;-70
2022/01/09 01:21:10;;;;;;;22.42;14.77;;;;;;;4.78;72.22;99656.94;5096589;28;20035;-70
2022/01/09 01:23:36;;;;;;;20.08;13.13;;;;;;;4.79;72.17;99653.81;5097274;28;20032;-70
2022/01/09 01:26:02;;;;;;;18.38;11.95;;;;;;;4.86;72.62;99642.28;5094672;28;20031;-70
2022/01/09 01:28:28;;;;;;;30.85;17.42;;;;;;;4.82;71.18;99644.09;5095213;28;20108;-70
2022/01/09 01:30:57;;;;;;;26.27;13.50;;;;;;;4.85;71.04;99646.19;5090706;28;20078;-70
2022/01/09 01:33:26;;;;;;;17.27;11.57;;;;;;;4.73;71.90;99647.72;5096421;28;20024;-70
2022/01/09 01:35:52;;;;;;;17.00;10.13;;;;;;;4.72;72.41;99646.09;5095666;28;20028;-70
2022/01/09 01:38:18;;;;;;;15.38;8.60;;;;;;;4.75;71.50;99636.38;5095702;28;20026;-70
2022/01/09 01:40:43;;;;;;;10.15;7.07;;;;;;;4.75;72.08;99646.59;5094983;28;20078;-70
2022/01/09 01:43:10;;;;;;;12.45;7.50;;;;;;;4.67;72.75;99646.31;5094969;28;20542;-70
2022/01/09 01:45:35;;;;;;;13.23;8.75;;;;;;;4.62;72.63;99631.94;5094838;28;20089;-70
2022/01/09 01:48:07;;;;;;;10.68;7.53;;;;;;;4.64;72.91;99641.47;5093910;28;20028;-70
2022/01/09 01:50:38;;;;;;;8.20;6.65;;;;;;;4.69;72.20;99624.75;5094822;28;20050;-70
2022/01/09 01:53:12;;;;;;;11.48;7.45;;;;;;;4.63;73.34;99617.81;5095753;28;20028;-70
2022/01/09 01:55:40;;;;;;;8.70;7.10;;;;;;;4.67;72.84;99617.94;5094481;28;20035;-70
2022/01/09 01:58:12;;;;;;;9.90;8.02;;;;;;;4.64;73.00;99608.41;5095987;28;20383;-70
2022/01/09 02:00:41;;;;;;;13.00;7.00;;;;;;;4.71;72.75;99594.88;5094518;28;20122;-70
2022/01/09 02:03:07;;;;;;;9.90;7.15;;;;;;;4.65;72.99;99599.00;5097913;28;20032;-71
2022/01/09 02:05:36;;;;;;;15.05;8.70;;;;;;;4.71;73.50;99589.38;5098782;28;20047;-72
2022/01/09 02:08:03;;;;;;;12.45;7.85;;;;;;;4.50;73.70;99568.50;5095110;28;20028;-70
2022/01/09 02:10:29;;;;;;;10.43;8.05;;;;;;;4.64;74.01;99586.38;5094421;28;20039;-70
2022/01/09 02:12:56;;;;;;;8.80;7.40;;;;;;;4.58;73.94;99582.22;5093935;28;20048;-70
2022/01/09 02:15:32;;;;;;;10.50;8.15;;;;;;;4.60;74.34;99579.91;5094082;28;20024;-70
2022/01/09 02:17:59;;;;;;;10.35;8.43;;;;;;;4.55;74.07;99569.09;5094920;28;20040;-70
2022/01/09 02:20:24;;;;;;;10.73;7.45;;;;;;;4.50;74.28;99563.78;5094189;28;20028;-71
2022/01/09 02:22:52;;;;;;;9.57;7.18;;;;;;;4.43;74.40;99558.84;5093866;28;20454;-71
2022/01/09 02:25:20;;;;;;;11.07;7.20;;;;;;;4.48;75.02;99555.06;5094110;28;20390;-70
2022/01/09 02:27:46;;;;;;;11.10;7.50;;;;;;;4.19;73.51;99512.69;5093902;28;20028;-69
2022/01/09 02:30:12;;;;;;;14.00;7.53;;;;;;;4.43;74.19;99550.56;5093865;28;20489;-69
2022/01/09 02:32:40;;;;;;;10.27;7.13;;;;;;;4.44;73.68;99548.63;5093195;28;20394;-69
2022/01/09 02:35:06;;;;;;;9.75;7.03;;;;;;;4.34;74.07;99541.56;5093633;28;20027;-69
2022/01/09 02:37:31;;;;;;;8.23;6.95;;;;;;;4.36;74.92;99536.50;5093656;28;20061;-70
2022/01/09 02:40:00;;;;;;;12.02;7.57;;;;;;;4.30;75.20;99531.56;5093711;28;20047;-70
2022/01/09 02:42:28;;;;;;;9.30;7.63;;;;;;;4.24;75.01;99516.38;5093799;28;20032;-70
2022/01/09 02:44:58;;;;;;;10.95;7.07;;;;;;;4.28;74.47;99531.09;5094839;28;20060;-69
2022/01/09 02:47:33;;;;;;;11.10;6.75;;;;;;;4.09;74.18;99498.53;5095022;28;20028;-69
2022/01/09 02:50:53;;;;;;;12.05;7.47;;;;;;;4.22;74.41;99513.19;5093419;28;20031;-69
2022/01/09 02:52:56;;;;;;;11.13;6.45;;;;;;;4.30;74.38;99520.53;5091496;28;20036;-69
2022/01/09 02:55:31;;;;;;;10.15;5.95;;;;;;;4.36;73.45;99514.47;5093563;28;20036;-71
2022/01/09 02:58:00;;;;;;;7.45;5.50;;;;;;;4.30;73.80;99515.03;5093196;28;20088;-69
2022/01/09 03:00:32;;;;;;;8.38;6.40;;;;;;;4.29;74.32;99513.44;5093299;28;20043;-69
2022/01/09 03:02:59;;;;;;;7.47;6.00;;;;;;;4.22;75.15;99513.19;5094277;28;20035;-69
2022/01/09 03:05:29;;;;;;;12.30;6.13;;;;;;;4.05;75.40;99484.66;5093415;28;20040;-69
2022/01/09 03:07:56;;;;;;;7.47;6.10;;;;;;;4.22;75.37;99499.41;5093126;28;20020;-68
2022/01/09 03:10:23;;;;;;;8.25;6.25;;;;;;;4.19;75.55;99496.16;5094093;28;20028;-69
2022/01/09 03:12:56;;;;;;;8.60;6.53;;;;;;;4.25;75.62;99509.72;5093930;28;20105;-69
2022/01/09 03:15:25;;;;;;;7.78;6.70;;;;;;;4.37;74.70;99504.31;5092934;28;20085;-69
2022/01/09 03:17:54;;;;;;;7.80;5.95;;;;;;;4.17;75.84;99459.13;5092943;28;20148;-69
2022/01/09 03:20:22;;;;;;;9.52;6.90;;;;;;;4.36;76.02;99481.44;5092907;28;20458;-71
2022/01/09 03:22:51;;;;;;;26.73;15.05;;;;;;;4.33;75.29;99481.31;5093130;28;20081;-71
2022/01/09 03:25:20;;;;;;;39.95;22.45;;;;;;;4.33;75.59;99478.56;5092860;28;20119;-71
2022/01/09 03:27:49;;;;;;;25.92;18.73;;;;;;;4.45;74.30;99479.41;5092805;28;20039;-70
2022/01/09 03:30:22;;;;;;;16.80;10.75;;;;;;;4.40;74.48;99470.56;5092863;28;20032;-69
2022/01/09 03:32:50;;;;;;;14.10;8.47;;;;;;;4.37;74.59;99465.75;5092869;28;20028;-70
2022/01/09 03:35:20;;;;;;;40.58;26.48;;;;;;;4.32;75.21;99476.97;5092855;28;20458;-69
2022/01/09 03:37:50;;;;;;;60.38;34.90;;;;;;;4.35;74.26;99479.81;5093949;28;20032;-71
2022/01/09 03:40:21;;;;;;;44.60;29.60;;;;;;;4.23;74.17;99454.19;5093893;28;20045;-68
2022/01/09 03:42:57;;;;;;;23.63;15.60;;;;;;;4.36;74.57;99475.94;5092620;28;20028;-71
2022/01/09 03:45:27;;;;;;;25.70;16.25;;;;;;;4.30;74.86;99476.47;5093155;28;20049;-71
2022/01/09 03:47:57;;;;;;;16.55;12.57;;;;;;;4.36;74.33;99480.63;5092765;28;20085;-71
2022/01/09 03:50:26;;;;;;;15.95;9.00;;;;;;;4.23;74.88;99470.72;5094215;28;20424;-70
2022/01/09 03:52:54;;;;;;;10.18;7.93;;;;;;;4.31;75.22;99489.91;5093244;28;20039;-69
2022/01/09 03:55:24;;;;;;;11.30;8.32;;;;;;;4.23;74.51;99482.53;5092469;28;20028;-69
2022/01/09 03:57:53;;;;;;;7.07;5.93;;;;;;;4.23;74.66;99470.72;5092383;28;20035;-69
2022/01/09 04:00:22;;;;;;;15.35;10.10;;;;;;;4.32;75.08;99485.22;5092647;28;20044;-69
2022/01/09 04:02:55;;;;;;;16.42;10.90;;;;;;;4.31;74.63;99464.31;5094238;28;20027;-69
2022/01/09 04:05:21;;;;;;;14.63;9.80;;;;;;;4.31;74.66;99450.53;5092384;28;20043;-71
2022/01/09 04:07:53;;;;;;;16.50;10.98;;;;;;;4.22;74.43;99428.63;5093977;28;20032;-73
2022/01/09 04:10:20;;;;;;;14.70;9.60;;;;;;;4.37;74.59;99443.69;5093276;28;20124;-69
2022/01/09 04:12:51;;;;;;;31.20;21.40;;;;;;;4.29;74.60;99445.38;5097562;28;20196;-68
2022/01/09 04:15:18;;;;;;;24.98;15.07;;;;;;;4.35;74.49;99452.28;5097669;28;20032;-70
2022/01/09 04:17:57;;;;;;;12.43;8.43;;;;;;;4.36;73.98;99453.09;5097485;28;20141;-68
2022/01/09 04:20:27;;;;;;;10.65;6.20;;;;;;;4.50;73.65;99453.59;5096726;28;20367;-70
2022/01/09 04:22:56;;;;;;;5.78;4.93;;;;;;;4.41;74.23;99461.13;5096275;28;20032;-71
2022/01/09 04:25:26;;;;;;;4.32;3.78;;;;;;;4.31;73.92;99461.56;5097239;28;20039;-69
2022/01/09 04:27:52;;;;;;;8.27;4.50;;;;;;;4.32;73.75;99463.19;5097450;28;20035;-68
2022/01/09 04:30:22;;;;;;;8.13;4.97;;;;;;;4.37;74.43;99465.75;5096279;28;20081;-69
2022/01/09 04:32:50;;;;;;;7.10;4.75;;;;;;;4.46;73.64;99469.19;5096094;28;20109;-69
2022/01/09 04:35:21;;;;;;;4.28;3.25;;;;;;;4.54;72.70;99464.75;5096969;28;20031;-69
2022/01/09 04:37:48;;;;;;;2.47;2.28;;;;;;;4.50;72.14;99458.31;5096591;28;20054;-69
2022/01/09 04:40:19;;;;;;;4.32;3.60;;;;;;;4.39;73.17;99427.63;5095917;28;20038;-69
2022/01/09 04:42:48;;;;;;;13.95;7.55;;;;;;;4.64;73.27;99448.59;5096027;28;20119;-69
2022/01/09 04:45:18;;;;;;;21.33;14.02;;;;;;;4.58;73.30;99454.63;5095933;28;20040;-69
2022/01/09 04:48:03;;;;;;;11.85;8.65;;;;;;;4.53;72.84;99454.84;5096404;28;20056;-69
2022/01/09 04:50:34;;;;;;;15.07;9.80;;;;;;;4.34;73.75;99431.41;5095797;28;20204;-70
2022/01/09 04:53:06;;;;;;;14.15;10.45;;;;;;;4.56;74.48;99451.44;5096753;28;20028;-69
2022/01/09 04:55:38;;;;;;;20.42;12.85;;;;;;;4.45;74.13;99448.31;5095648;28;20067;-70
2022/01/09 04:58:05;;;;;;;6.80;4.90;;;;;;;4.42;73.29;99455.31;5096477;28;20044;-69
2022/01/09 05:00:33;;;;;;;6.68;4.28;;;;;;;4.16;73.27;99428.03;5096812;28;20034;-69
2022/01/09 05:03:02;;;;;;;7.55;5.65;;;;;;;4.26;72.81;99457.09;5096162;28;20042;-69
2022/01/09 05:05:30;;;;;;;7.60;5.82;;;;;;;4.32;74.25;99463.19;5096541;28;20032;-69
2022/01/09 05:07:56;;;;;;;8.73;7.25;;;;;;;4.30;75.11;99462.72;5096284;28;20109;-69
2022/01/09 05:10:30;;;;;;;17.02;11.50;;;;;;;4.30;75.03;99469.03;5096054;28;20446;-69
2022/01/09 05:12:56;;;;;;;15.35;7.30;;;;;;;4.34;74.45;99460.91;5095141;28;20074;-69
2022/01/09 05:15:23;;;;;;;12.90;6.15;;;;;;;4.41;74.19;99447.38;5095527;28;20063;-70
2022/01/09 05:17:57;;;;;;;10.65;6.20;;;;;;;4.38;74.87;99451.63;5096591;28;20425;-69
2022/01/09 05:20:23;;;;;;;8.52;5.63;;;;;;;4.35;75.58;99451.47;5094843;28;20474;-69
2022/01/09 05:22:48;;;;;;;10.80;6.40;;;;;;;4.31;75.63;99453.28;5095057;28;20043;-69
2022/01/09 05:25:14;;;;;;;9.88;6.30;;;;;;;4.32;76.23;99457.69;5095119;28;20032;-69
2022/01/09 05:27:39;;;;;;;7.40;6.13;;;;;;;4.43;75.45;99453.34;5094802;28;20035;-69
2022/01/09 05:30:08;;;;;;;8.00;5.43;;;;;;;4.44;74.54;99455.75;5095086;28;20028;-69
2022/01/09 05:32:34;;;;;;;7.70;5.07;;;;;;;4.52;74.75;99454.06;5097189;28;20443;-70
2022/01/09 05:35:00;;;;;;;9.02;5.65;;;;;;;4.49;75.55;99457.50;5098777;28;20039;-70
2022/01/09 05:37:25;;;;;;;6.78;5.13;;;;;;;4.46;75.60;99452.66;5097108;28;20032;-69
2022/01/09 05:39:51;;;;;;;7.10;4.63;;;;;;;4.30;75.88;99418.66;5094958;28;20036;-69
2022/01/09 05:42:16;;;;;;;6.85;5.78;;;;;;;4.55;74.85;99460.84;5095938;28;20397;-70
2022/01/09 05:44:42;;;;;;;13.02;6.50;;;;;;;4.61;75.11;99454.78;5094672;28;20043;-69
2022/01/09 05:47:08;;;;;;;6.20;4.82;;;;;;;4.54;75.42;99448.22;5095032;28;20036;-70
2022/01/09 05:49:33;;;;;;;7.20;5.40;;;;;;;4.48;74.87;99444.88;5094675;28;20064;-69
2022/01/09 05:51:59;;;;;;;6.63;5.53;;;;;;;4.48;75.42;99439.38;5095217;28;20089;-70
2022/01/09 05:54:25;;;;;;;9.85;5.68;;;;;;;4.49;75.74;99429.97;5094829;28;20470;-69
2022/01/09 05:56:51;;;;;;;9.23;6.25;;;;;;;4.45;75.73;99418.81;5094512;28;20024;-69
2022/01/09 05:59:18;;;;;;;7.57;5.43;;;;;;;4.51;75.81;99419.38;5095434;28;20429;-69
2022/01/09 06:01:45;;;;;;;6.82;5.53;;;;;;;4.55;75.86;99420.31;5094368;28;20032;-69
2022/01/09 06:04:10;;;;;;;8.80;5.35;;;;;;;4.58;74.85;99416.06;5095677;28;20184;-68
2022/01/09 06:06:36;;;;;;;7.07;5.40;;;;;;;4.67;74.85;99420.34;5094294;28;20495;-69
2022/01/09 06:09:02;;;;;;;6.85;5.63;;;;;;;4.79;74.08;99421.50;5094547;28;20031;-71
2022/01/09 06:11:28;;;;;;;11.05;5.70;;;;;;;4.71;74.34;99415.75;5095251;28;20020;-71
2022/01/09 06:13:53;;;;;;;7.68;6.25;;;;;;;4.62;74.93;99409.53;5095285;28;20048;-68
2022/01/09 06:16:19;;;;;;;8.23;7.43;;;;;;;4.52;74.75;99415.47;5094118;28;20466;-69
2022/01/09 06:18:45;;;;;;;13.73;12.02;;;;;;;4.41;75.00;99406.06;5095457;28;20391;-69
2022/01/09 06:21:10;;;;;;;17.90;13.65;;;;;;;4.41;74.73;99408.81;5094684;28;20067;-69
2022/01/09 06:23:36;;;;;;;16.50;11.50;;;;;;;4.36;75.83;99404.31;5094010;28;20085;-69
2022/01/09 06:26:02;;;;;;;13.68;11.13;;;;;;;4.46;76.28;99411.34;5095000;28;20085;-71
2022/01/09 06:28:27;;;;;;;12.88;10.90;;;;;;;4.49;76.25;99404.38;5094972;28;20509;-69
2022/01/09 06:30:53;;;;;;;16.20;11.63;;;;;;;4.47;76.31;99393.66;5110962;28;20055;-71
2022/01/09 06:33:19;;;;;;;17.42;11.02;;;;;;;4.56;75.79;99394.38;5093885;28;20036;-69
2022/01/09 06:35:45;;;;;;;15.27;12.10;;;;;;;4.67;75.71;99387.28;5093692;28;20024;-69
2022/01/09 06:38:10;;;;;;;18.83;13.82;;;;;;;5.15;74.07;99395.91;5093676;28;20036;-68
2022/01/09 06:40:39;;;;;;;15.60;10.93;;;;;;;5.29;72.58;99395.56;5093763;28;20028;-70
2022/01/09 06:43:05;;;;;;;16.98;11.95;;;;;;;5.29;72.42;99395.56;5094975;28;20024;-69
2022/01/09 06:45:31;;;;;;;15.68;10.50;;;;;;;5.18;73.12;99384.19;5093961;28;20054;-69
2022/01/09 06:47:57;;;;;;;15.48;9.20;;;;;;;5.19;73.08;99386.59;5095472;28;20032;-71
2022/01/09 06:50:24;;;;;;;11.93;7.25;;;;;;;5.24;73.22;99396.59;5093610;28;20039;-69
2022/01/09 06:52:50;;;;;;;10.00;6.88;;;;;;;5.20;73.47;99399.22;5093860;28;20046;-69
2022/01/09 06:55:16;;;;;;;9.88;6.63;;;;;;;5.14;73.08;99384.06;5094215;28;20114;-69
2022/01/09 06:57:42;;;;;;;9.82;7.53;;;;;;;5.19;74.10;99378.31;5095214;28;20145;-71
2022/01/09 07:00:10;;;;;;;12.15;8.23;;;;;;;5.08;73.02;99362.59;5093669;28;20493;-71
2022/01/09 07:02:35;;;;;;;11.85;8.48;;;;;;;5.23;73.42;99392.25;5094508;28;20030;-69
2022/01/09 07:05:01;;;;;;;13.32;8.00;;;;;;;5.35;73.42;99388.66;5092724;28;20024;-70
2022/01/09 07:07:26;;;;;;;14.55;8.85;;;;;;;5.41;73.10;99384.50;5091892;28;20482;-69
2022/01/09 07:09:52;;;;;;;17.73;11.60;;;;;;;5.63;73.88;99391.47;5091883;28;20032;-71
2022/01/09 07:12:19;;;;;;;25.08;15.15;;;;;;;5.72;73.01;99389.38;5092249;28;20056;-71
2022/01/09 07:17:29;;;;;;;35.40;18.10;;;;;;;6.07;71.94;99378.56;5093967;28;20088;-69
2022/01/09 07:19:55;;;;;;;32.95;16.52;;;;;;;6.19;71.15;99392.34;5093199;28;20427;-69
2022/01/09 07:22:20;;;;;;;36.30;18.20;;;;;;;6.25;71.25;99387.34;5092862;28;20442;-69
2022/01/09 07:24:46;;;;;;;46.38;23.33;;;;;;;6.37;70.33;99389.25;5092771;28;20039;-69
2022/01/09 07:27:11;;;;;;;71.97;33.38;;;;;;;6.49;69.63;99386.41;5092709;28;20035;-69
2022/01/09 07:29:37;;;;;;;93.72;39.40;;;;;;;6.53;69.29;99388.09;5092732;28;20028;-69
2022/01/09 07:32:03;;;;;;;108.03;43.90;;;;;;;6.55;68.54;99390.50;5093599;28;20158;-70
2022/01/09 07:34:28;;;;;;;100.25;40.80;;;;;;;6.63;68.15;99383.22;5092576;28;20104;-69
2022/01/09 07:36:54;;;;;;;93.72;36.20;;;;;;;6.97;67.35;99378.91;5092611;28;20031;-69
2022/01/09 07:39:19;;;;;;;52.20;24.88;;;;;;;7.17;64.61;99338.31;5092508;28;20032;-69
2022/01/09 07:41:45;;;;;;;62.47;26.40;;;;;;;7.43;64.06;99374.47;5092608;28;20032;-71
2022/01/09 07:44:11;;;;;;;40.90;20.73;;;;;;;7.16;64.30;99367.94;5092622;28;20042;-70
2022/01/09 07:46:38;;;;;;;29.25;15.77;;;;;;;7.03;64.99;99374.72;5092280;28;20445;-71
2022/01/09 07:49:03;;;;;;;32.95;17.20;;;;;;;6.98;65.16;99375.03;5093139;28;20028;-71
2022/01/09 07:51:29;;;;;;;18.95;12.43;;;;;;;6.71;64.67;99372.00;5092839;28;20471;-70
2022/01/09 07:53:54;;;;;;;18.58;10.60;;;;;;;6.97;64.47;99373.38;5092515;28;20467;-70
2022/01/09 07:56:21;;;;;;;13.32;8.73;;;;;;;7.09;62.90;99368.56;5092461;28;20052;-71
2022/01/09 07:58:46;;;;;;;11.70;7.70;;;;;;;7.11;61.27;99361.88;5094105;28;20024;-71
2022/01/09 08:01:12;;;;;;;18.35;7.90;;;;;;;7.17;61.60;99358.47;5092497;28;20123;-71
2022/01/09 08:03:37;;;;;;;10.25;7.20;;;;;;;7.27;62.35;99357.91;5093825;28;20055;-71
2022/01/09 08:06:03;;;;;;;13.30;7.53;;;;;;;7.27;62.20;99348.81;5092379;28;20035;-71
2022/01/09 08:08:29;;;;;;;12.00;7.43;;;;;;;7.41;62.17;99349.13;5093662;28;20043;-71
2022/01/09 08:10:55;;;;;;;9.57;7.30;;;;;;;7.57;60.22;99336.03;5093976;28;20024;-71
2022/01/09 08:13:21;;;;;;;11.10;6.18;;;;;;;7.40;59.18;99310.72;5093768;28;20052;-71
2022/01/09 08:15:47;;;;;;;7.80;5.78;;;;;;;7.37;59.83;99330.84;5092246;28;20097;-71
2022/01/09 08:18:12;;;;;;;11.45;6.68;;;;;;;7.27;60.51;99327.47;5093558;28;20039;-71
2022/01/09 08:20:38;;;;;;;15.52;8.95;;;;;;;7.20;60.71;99324.56;5092487;28;20028;-69
2022/01/09 08:23:04;;;;;;;9.93;7.75;;;;;;;7.16;61.15;99323.66;5092245;28;20362;-69
2022/01/09 08:25:29;;;;;;;9.23;7.35;;;;;;;7.96;58.72;99326.91;5092563;28;20032;-69
2022/01/09 08:27:55;;;;;;;12.32;7.47;;;;;;;8.71;57.31;99318.00;5092776;28;20442;-70
2022/01/09 08:30:22;;;;;;;14.00;8.20;;;;;;;9.47;53.79;99319.91;5091882;28;20465;-70
2022/01/09 08:32:48;;;;;;;10.73;8.35;;;;;;;10.13;52.36;99310.81;5092935;28;20420;-69
2022/01/09 08:35:14;;;;;;;17.25;10.35;;;;;;;10.11;51.36;99312.34;5092054;28;20117;-69
2022/01/09 08:37:42;;;;;;;17.98;10.07;;;;;;;9.94;52.63;99303.44;5092575;28;20386;-69
2022/01/09 08:40:10;;;;;;;10.95;8.45;;;;;;;10.51;51.66;99291.34;5092947;28;20363;-71
2022/01/09 08:42:36;;;;;;;12.10;7.22;;;;;;;10.88;50.95;99289.25;5093324;28;20024;-70
2022/01/09 08:45:01;;;;;;;10.32;7.10;;;;;;;11.63;50.04;99286.91;5092086;28;20552;-70
2022/01/09 08:47:27;;;;;;;9.30;6.70;;;;;;;12.47;47.78;99289.53;5092064;28;20032;-69
2022/01/09 08:49:52;;;;;;;10.57;7.95;;;;;;;12.32;47.58;99283.13;5092048;28;20028;-70
2022/01/09 08:52:18;;;;;;;11.18;8.27;;;;;;;12.96;46.45;99273.97;5091985;28;20085;-70
2022/01/09 08:54:44;;;;;;;11.50;7.75;;;;;;;13.14;45.47;99273.94;5091721;28;20077;-68
2022/01/09 08:57:09;;;;;;;12.65;8.05;;;;;;;12.23;46.36;99268.78;5094156;28;20024;-68
2022/01/09 08:59:35;;;;;;;9.50;7.18;;;;;;;11.75;49.12;99269.03;5095682;28;20459;-70
2022/01/09 09:02:00;;;;;;;8.63;6.15;;;;;;;11.53;50.79;99268.13;5096222;28;20028;-71
2022/01/09 09:04:26;;;;;;;9.63;7.50;;;;;;;11.38;49.92;99267.28;5096498;28;20527;-70
2022/01/09 09:06:52;;;;;;;7.82;7.03;;;;;;;11.43;50.67;99264.13;5095778;28;20032;-71
2022/01/09 09:09:17;;;;;;;10.88;7.32;;;;;;;11.01;51.44;99264.69;5095875;28;20224;-69
2022/01/09 09:11:43;;;;;;;10.27;7.60;;;;;;;10.86;52.51;99266.56;5096073;28;20370;-68
2022/01/09 09:14:08;;;;;;;12.63;8.30;;;;;;;10.37;54.19;99273.31;5094905;28;20482;-70
2022/01/09 09:16:34;;;;;;;13.40;8.73;;;;;;;10.17;55.22;99269.13;5095346;28;20382;-69
2022/01/09 09:19:00;;;;;;;12.32;8.43;;;;;;;10.09;55.08;99264.69;5095556;28;20062;-70
2022/01/09 09:21:25;;;;;;;10.95;7.78;;;;;;;9.79;56.01;99271.13;5095247;28;20050;-69
2022/01/09 09:23:51;;;;;;;9.02;8.00;;;;;;;9.54;57.46;99264.50;5095861;28;20032;-69
2022/01/09 09:26:17;;;;;;;13.93;7.95;;;;;;;9.30;58.31;99266.56;5095283;28;20487;-70
2022/01/09 09:28:43;;;;;;;16.60;9.15;;;;;;;9.10;60.26;99265.09;5094855;28;20051;-70
2022/01/09 09:31:09;;;;;;;12.43;8.32;;;;;;;9.25;59.16;99254.97;5096663;28;20497;-71
2022/01/09 09:33:34;;;;;;;15.20;9.38;;;;;;;9.24;59.65;99250.63;5095899;28;20035;-69
2022/01/09 09:36:02;;;;;;;11.50;8.23;;;;;;;9.41;57.92;99253.59;5095020;28;20024;-69
2022/01/09 09:38:31;;;;;;;15.07;11.73;;;;;;;9.36;58.94;99251.16;5095844;28;20035;-70
2022/01/09 09:40:57;;;;;;;16.35;11.80;;;;;;;9.23;59.26;99235.13;5097280;28;20059;-70
2022/01/09 09:43:23;;;;;;;16.42;12.57;;;;;;;9.12;59.16;99240.56;5095019;28;20028;-69
2022/01/09 09:45:51;;;;;;;23.65;14.05;;;;;;;8.99;59.35;99225.28;5094690;28;20039;-70
2022/01/09 09:48:17;;;;;;;16.73;12.55;;;;;;;9.08;59.84;99228.59;5095040;28;20119;-68
2022/01/09 09:50:43;;;;;;;15.02;9.73;;;;;;;9.14;59.37;99224.31;5094243;28;20039;-69
2022/01/09 09:53:08;;;;;;;19.70;13.07;;;;;;;9.32;59.02;99222.56;5094937;28;20040;-68
2022/01/09 09:55:34;;;;;;;16.10;12.35;;;;;;;9.59;58.49;99225.28;5094554;28;20367;-69
2022/01/09 09:57:59;;;;;;;13.82;9.52;;;;;;;9.45;59.44;99215.59;5094762;28;20035;-69
2022/01/09 10:00:25;;;;;;;15.60;9.80;;;;;;;9.68;57.44;99217.41;5094540;28;20382;-69
2022/01/09 10:02:57;;;;;;;19.15;13.30;;;;;;;9.70;58.42;99209.53;5094471;28;20036;-69
2022/01/09 10:05:24;;;;;;;11.95;9.73;;;;;;;9.84;57.65;99192.97;5094426;28;20085;-69
2022/01/09 10:08:03;;;;;;;18.33;8.48;;;;;;;9.95;56.01;99188.31;5093961;28;20035;-69
2022/01/09 10:10:31;;;;;;;17.63;10.43;;;;;;;9.98;55.89;99182.00;5077426;28;20032;-69
2022/01/09 10:13:15;;;;;;;13.23;10.63;;;;;;;10.10;55.47;99178.13;5094265;28;20051;-69
2022/01/09 10:15:49;;;;;;;10.15;6.97;;;;;;;10.12;53.28;99174.97;5094139;28;20023;-69
2022/01/09 10:18:50;;;;;;;11.75;7.30;;;;;;;10.13;52.35;99166.25;5093904;28;20024;-69
2022/01/09 10:21:22;;;;;;;9.15;6.00;;;;;;;10.37;51.54;99159.31;5016487;28;20030;-69
2022/01/09 10:24:03;;;;;;;6.95;5.82;;;;;;;10.69;51.66;99147.59;5085247;28;20111;-68
2022/01/09 10:26:30;;;;;;;10.00;6.00;;;;;;;10.88;51.60;99144.53;5094914;28;20520;-71
2022/01/09 10:28:57;;;;;;;9.70;6.40;;;;;;;11.05;50.68;99142.22;5094276;28;20466;-70
2022/01/09 10:31:23;;;;;;;9.40;5.93;;;;;;;11.08;50.60;99128.34;5093979;28;20024;-69
2022/01/09 10:34:06;;;;;;;16.85;7.22;;;;;;;11.10;51.62;99127.94;5093926;28;20035;-69
2022/01/09 10:36:45;;;;;;;6.75;3.47;;;;;;;11.01;50.14;99119.94;5093751;28;20020;-69
2022/01/09 10:39:16;;;;;;;12.82;8.50;;;;;;;10.85;50.27;99116.69;5094008;28;20028;-71
2022/01/09 10:41:57;;;;;;;19.33;11.98;;;;;;;10.80;51.25;99115.06;5093748;28;20115;-70
2022/01/09 10:44:30;;;;;;;12.25;8.93;;;;;;;10.60;52.41;99102.63;5093673;28;20028;-71
2022/01/09 10:47:00;;;;;;;14.77;10.80;;;;;;;10.41;52.40;99098.97;5093593;28;20049;-70
2022/01/09 10:49:45;;;;;;;14.10;8.02;;;;;;;10.51;52.67;99086.31;5093851;28;20090;-70
2022/01/09 10:52:21;;;;;;;23.58;13.43;;;;;;;10.25;53.13;99084.56;5095359;28;20024;-69
2022/01/09 10:54:49;;;;;;;26.48;15.13;;;;;;;10.12;52.57;99086.03;5093962;28;20028;-71
2022/01/09 10:57:18;;;;;;;17.48;11.73;;;;;;;10.01;52.71;99079.59;5093911;28;20034;-70
2022/01/09 10:59:44;;;;;;;17.95;10.48;;;;;;;9.87;53.68;99064.44;5093324;28;20031;-69
2022/01/09 11:02:12;;;;;;;40.08;22.15;;;;;;;9.84;55.02;99069.94;5093204;28;20047;-69
2022/01/09 11:04:39;;;;;;;24.13;17.30;;;;;;;9.88;54.88;99060.47;5093246;28;20485;-68
2022/01/09 11:07:06;;;;;;;20.63;15.52;;;;;;;9.81;54.99;99049.31;5093133;28;20027;-70
2022/01/09 11:09:32;;;;;;;15.60;9.10;;;;;;;9.80;54.49;99050.50;5093214;28;20020;-71
2022/01/09 11:11:58;;;;;;;18.85;12.88;;;;;;;9.77;55.20;99050.47;5094857;28;20348;-70
2022/01/09 11:14:26;;;;;;;16.58;10.15;;;;;;;9.67;55.43;99038.88;5109914;28;20028;-68
2022/01/09 11:16:54;;;;;;;15.05;10.00;;;;;;;9.58;56.18;99035.59;5093977;28;20374;-70
2022/01/09 11:19:22;;;;;;;36.38;19.17;;;;;;;9.56;57.23;99024.09;5094701;28;20024;-69
2022/01/09 11:21:59;;;;;;;24.48;14.85;;;;;;;9.48;58.20;99029.97;5093053;28;20035;-68
2022/01/09 11:24:53;;;;;;;19.73;11.75;;;;;;;9.51;59.22;99021.69;5094590;28;20083;-70
2022/01/09 11:27:25;;;;;;;22.85;16.23;;;;;;;9.43;59.54;99018.06;5093833;28;20028;-70
2022/01/09 11:30:14;;;;;;;21.38;16.63;;;;;;;9.19;59.56;99008.31;5093016;28;20031;-70
2022/01/09 11:32:52;;;;;;;19.88;14.40;;;;;;;9.20;60.95;99006.31;5093331;28;20071;-70
2022/01/09 11:35:18;;;;;;;23.77;15.73;;;;;;;9.06;62.38;99003.44;5093445;28;20038;-72
2022/01/09 11:38:08;;;;;;;15.85;10.80;;;;;;;9.07;62.64;98994.72;5092972;28;20032;-71
2022/01/09 11:40:34;;;;;;;27.85;16.85;;;;;;;9.05;64.28;98999.03;5094563;28;20481;-71